createdAt,value
2017-11-28T00:00:37.979Z,75.11
2017-11-28T00:03:06.292Z,74.97
2017-11-28T00:05:35.390Z,73.29
2017-11-28T00:08:04.483Z,74.82
2017-11-28T00:10:33.571Z,76.20
2017-11-28T00:13:02.641Z,76.62
2017-11-28T00:15:30.982Z,77.48
2017-11-28T00:17:59.339Z,76.57
2017-11-28T00:20:28.445Z,74.72
2017-11-28T00:22:57.534Z,75.36
2017-11-28T00:25:25.853Z,75.50
2017-11-28T00:27:54.166Z,75.56
2017-11-28T00:30:22.626Z,75.71
2017-11-28T00:32:50.960Z,74.26
2017-11-28T00:35:19.289Z,73.32
2017-11-28T00:37:47.628Z,73.34
2017-11-28T00:40:15.944Z,74.00
2017-11-28T00:42:44.243Z,73.62
2017-11-28T00:45:12.670Z,73.60
2017-11-28T00:47:40.994Z,74.05
2017-11-28T00:50:09.312Z,72.67
2017-11-28T00:52:38.497Z,70.89
2017-11-28T00:55:06.802Z,72.07
2017-11-28T00:57:35.148Z,71.78
2017-11-28T01:00:03.481Z,72.72
2017-11-28T01:02:32.577Z,73.12
2017-11-28T01:05:01.044Z,72.62
2017-11-28T01:07:29.356Z,73.26
2017-11-28T01:09:58.548Z,73.14
2017-11-28T01:12:27.663Z,73.00
2017-11-28T01:14:55.989Z,74.55
2017-11-28T01:17:24.348Z,74.38
2017-11-28T01:19:52.790Z,73.19
2017-11-28T01:22:21.861Z,73.30
2017-11-28T01:24:51.677Z,73.36
2017-11-28T01:27:20.045Z,72.65
2017-11-28T01:29:48.357Z,73.92
2017-11-28T01:32:16.934Z,74.98
2017-11-28T01:34:45.274Z,73.82
2017-11-28T01:37:13.647Z,75.10
2017-11-28T01:39:42.110Z,74.55
2017-11-28T01:42:11.201Z,74.79
2017-11-28T01:44:40.315Z,74.93
2017-11-28T01:47:09.543Z,75.82
2017-11-28T01:49:37.883Z,75.55
2017-11-28T01:52:07.111Z,74.43
2017-11-28T01:54:35.469Z,74.64
2017-11-28T01:57:04.607Z,74.90
2017-11-28T01:59:32.990Z,73.13
2017-11-28T02:02:01.317Z,73.23
2017-11-28T02:04:29.697Z,73.35
2017-11-28T02:06:58.032Z,72.98
2017-11-28T02:09:26.407Z,72.30
2017-11-28T02:11:54.745Z,72.15
2017-11-28T02:14:23.148Z,73.60
2017-11-28T02:16:51.469Z,72.72
2017-11-28T02:19:19.860Z,72.61
2017-11-28T02:21:48.751Z,72.48
2017-11-28T02:24:18.141Z,72.21
2017-11-28T02:26:46.606Z,71.92
2017-11-28T02:29:15.421Z,73.50
2017-11-28T02:31:43.955Z,73.75
2017-11-28T02:34:13.264Z,71.81
2017-11-28T02:36:42.740Z,73.08
2017-11-28T02:39:11.105Z,73.13
2017-11-28T02:41:39.472Z,72.72
2017-11-28T02:44:08.609Z,71.79
2017-11-28T02:46:36.905Z,72.30
2017-11-28T02:49:16.979Z,72.30
2017-11-28T02:51:51.864Z,72.69
2017-11-28T02:54:20.797Z,73.22
2017-11-28T02:56:49.257Z,73.48
2017-11-28T03:06:30.136Z,73.19
2017-11-28T03:09:16.968Z,72.33
2017-11-28T03:11:45.297Z,71.99
2017-11-28T03:27:46.774Z,73.61
2017-11-28T03:33:08.565Z,72.61
2017-11-28T03:35:36.978Z,71.47
2017-11-28T03:38:05.673Z,72.11
2017-11-28T03:40:34.008Z,73.75
2017-11-28T03:43:03.107Z,74.32
2017-11-28T03:45:47.828Z,73.29
2017-11-28T03:48:16.421Z,74.35
2017-11-28T03:50:44.875Z,75.65
2017-11-28T03:53:14.882Z,75.83
2017-11-28T03:55:43.394Z,75.79
2017-11-28T03:58:12.506Z,75.73
2017-11-28T04:00:41.080Z,75.54
2017-11-28T04:03:10.256Z,75.99
2017-11-28T04:05:39.255Z,75.85
2017-11-28T04:08:07.613Z,74.47
2017-11-28T04:10:36.024Z,74.96
2017-11-28T04:13:04.658Z,75.28
2017-11-28T04:15:32.983Z,75.56
2017-11-28T04:18:01.464Z,75.30
2017-11-28T04:20:29.892Z,75.47
2017-11-28T04:22:58.195Z,75.05
2017-11-28T04:25:27.455Z,75.04
2017-11-28T04:27:55.992Z,75.51
2017-11-28T04:30:25.359Z,75.49
2017-11-28T04:32:53.900Z,75.75
2017-11-28T04:35:22.403Z,75.64
2017-11-28T04:37:51.411Z,76.28
2017-11-28T04:40:19.902Z,75.27
2017-11-28T04:42:48.257Z,75.21
2017-11-28T04:45:16.930Z,75.67
2017-11-28T04:47:45.536Z,75.84
2017-11-28T04:50:15.061Z,76.42
2017-11-28T04:52:43.457Z,77.15
2017-11-28T04:55:11.944Z,76.66
2017-11-28T04:57:41.044Z,75.69
2017-11-28T05:00:10.175Z,75.57
2017-11-28T05:02:39.256Z,75.04
2017-11-28T05:05:07.579Z,73.95
2017-11-28T05:07:35.977Z,74.04
2017-11-28T05:10:05.113Z,74.93
2017-11-28T05:12:34.272Z,75.42
2017-11-28T05:15:02.654Z,75.58
2017-11-28T05:17:31.072Z,75.46
2017-11-28T05:19:59.552Z,75.28
2017-11-28T05:22:28.643Z,75.18
2017-11-28T05:24:57.689Z,75.05
2017-11-28T05:27:26.341Z,73.90
2017-11-28T05:29:55.778Z,71.89
2017-11-28T05:32:25.466Z,71.62
2017-11-28T05:34:54.061Z,71.89
2017-11-28T05:37:22.377Z,72.33
2017-11-28T05:39:51.181Z,72.07
2017-11-28T05:42:19.799Z,72.18
2017-11-28T05:44:48.176Z,74.43
2017-11-28T05:47:16.584Z,74.42
2017-11-28T05:49:44.891Z,73.83
2017-11-28T05:52:13.357Z,73.46
2017-11-28T05:54:43.341Z,72.57
2017-11-28T05:57:12.315Z,73.12
2017-11-28T05:59:40.751Z,73.33
2017-11-28T06:02:09.390Z,74.39
2017-11-28T06:04:37.760Z,75.00
2017-11-28T06:07:06.269Z,76.15
2017-11-28T06:09:34.639Z,78.97
2017-11-28T06:12:03.574Z,81.48
2017-11-28T06:14:32.134Z,82.90
2017-11-28T06:17:00.716Z,83.79
2017-11-28T06:19:29.236Z,84.87
2017-11-28T06:21:58.348Z,85.10
2017-11-28T06:24:27.425Z,85.25
2017-11-28T06:26:58.030Z,85.42
2017-11-28T06:29:27.243Z,86.19
2017-11-28T06:31:55.610Z,86.52
2017-11-28T06:34:24.308Z,86.81
2017-11-28T06:36:52.888Z,87.19
2017-11-28T06:53:00.231Z,87.01
2017-11-28T06:55:28.868Z,87.19
2017-11-28T06:57:57.418Z,86.88
2017-11-28T07:00:26.000Z,87.33
2017-11-28T07:02:54.311Z,87.76
2017-11-28T07:05:22.716Z,87.87
2017-11-28T07:07:51.009Z,87.65
2017-11-28T07:10:19.335Z,87.65
2017-11-28T07:12:47.710Z,87.86
2017-11-28T07:15:16.044Z,87.80
2017-11-28T07:17:45.155Z,87.98
2017-11-28T07:20:13.698Z,88.10
2017-11-28T07:22:42.137Z,88.17
2017-11-28T07:25:10.486Z,88.14
2017-11-28T07:27:39.712Z,87.96
2017-11-28T07:30:08.027Z,87.59
2017-11-28T07:32:36.429Z,86.92
2017-11-28T07:35:04.902Z,86.68
2017-11-28T07:37:33.910Z,85.79
2017-11-28T07:40:02.262Z,87.16
2017-11-28T07:42:30.604Z,87.39
2017-11-28T07:44:59.710Z,85.29
2017-11-28T07:47:28.023Z,87.47
2017-11-28T07:49:56.596Z,89.00
2017-11-28T07:52:24.935Z,89.96
2017-11-28T07:54:53.256Z,90.43
2017-11-28T07:57:21.726Z,90.59
2017-11-28T07:59:50.833Z,90.70
2017-11-28T08:02:19.853Z,90.99
2017-11-28T08:04:48.207Z,90.97
2017-11-28T08:07:16.527Z,91.13
2017-11-28T08:09:44.933Z,91.54
2017-11-28T08:12:14.084Z,91.44
2017-11-28T08:14:42.410Z,91.39
2017-11-28T08:17:10.870Z,91.64
2017-11-28T08:19:39.376Z,91.88
2017-11-28T08:22:10.067Z,91.42
2017-11-28T08:24:39.005Z,91.60
2017-11-28T08:27:07.314Z,90.75
2017-11-28T08:29:36.956Z,90.92
2017-11-28T08:32:05.458Z,86.48
2017-11-28T08:34:33.795Z,87.78
2017-11-28T08:37:03.036Z,89.25
2017-11-28T08:39:31.478Z,89.78
2017-11-28T08:41:59.892Z,88.89
2017-11-28T08:44:29.125Z,90.30
2017-11-28T08:46:57.435Z,90.82
2017-11-28T08:49:26.605Z,91.30
2017-11-28T08:51:54.944Z,91.69
2017-11-28T08:54:23.246Z,91.65
2017-11-28T08:56:51.577Z,92.09
2017-11-28T08:59:21.229Z,92.26
2017-11-28T09:01:49.546Z,92.48
2017-11-28T09:04:18.833Z,92.76
2017-11-28T09:06:47.206Z,92.67
2017-11-28T09:09:15.684Z,92.66
2017-11-28T09:11:44.114Z,92.68
2017-11-28T09:14:12.510Z,92.94
2017-11-28T09:16:41.745Z,91.60
2017-11-28T09:19:10.183Z,92.31
2017-11-28T09:21:38.513Z,92.14
2017-11-28T09:24:06.901Z,92.29
2017-11-28T09:26:35.220Z,92.34
2017-11-28T09:29:03.655Z,92.32
2017-11-28T09:31:31.962Z,92.50
2017-11-28T09:34:00.507Z,92.59
2017-11-28T09:36:28.819Z,92.57
2017-11-28T09:38:57.241Z,92.50
2017-11-28T09:41:26.319Z,92.68
2017-11-28T09:43:54.656Z,92.40
2017-11-28T09:46:22.961Z,92.34
2017-11-28T09:48:51.281Z,92.03
2017-11-28T09:51:20.538Z,92.01
2017-11-28T09:53:48.831Z,91.76
2017-11-28T09:56:17.143Z,91.76
2017-11-28T09:58:45.594Z,91.61
2017-11-28T10:01:13.985Z,91.28
2017-11-28T10:03:42.305Z,89.86
2017-11-28T10:06:11.390Z,90.32
2017-11-28T10:08:40.532Z,91.27
2017-11-28T10:11:08.867Z,91.62
2017-11-28T10:13:37.938Z,91.76
2017-11-28T10:16:06.284Z,92.13
2017-11-28T10:18:35.424Z,92.37
2017-11-28T10:21:04.530Z,92.57
2017-11-28T10:23:32.863Z,92.75
2017-11-28T10:26:01.197Z,92.82
2017-11-28T10:28:31.033Z,92.68
2017-11-28T10:31:00.105Z,92.27
2017-11-28T10:33:29.200Z,92.35
2017-11-28T10:35:57.621Z,92.81
2017-11-28T10:38:26.696Z,92.70
2017-11-28T10:40:55.789Z,92.50
2017-11-28T10:43:25.043Z,92.86
2017-11-28T10:45:53.361Z,93.07
2017-11-28T10:48:21.696Z,92.86
2017-11-28T10:50:50.032Z,92.98
2017-11-28T10:53:19.881Z,92.98
2017-11-28T10:55:48.219Z,92.68
2017-11-28T10:58:17.315Z,92.57
2017-11-28T11:00:45.812Z,92.54
2017-11-28T11:03:14.125Z,92.92
2017-11-28T11:05:42.430Z,93.02
2017-11-28T11:08:10.769Z,92.82
2017-11-28T11:10:40.632Z,92.86
2017-11-28T11:13:08.966Z,92.93
2017-11-28T11:15:38.045Z,92.77
2017-11-28T11:18:06.428Z,92.46
2017-11-28T11:20:35.796Z,92.60
2017-11-28T11:23:04.110Z,92.75
2017-11-28T11:25:33.960Z,92.75
2017-11-28T11:28:02.287Z,92.85
2017-11-28T11:30:30.605Z,92.75
2017-11-28T11:32:58.900Z,92.66
2017-11-28T11:35:27.253Z,92.65
2017-11-28T11:37:56.349Z,92.38
2017-11-28T11:40:24.765Z,92.48
2017-11-28T11:42:53.921Z,92.45
2017-11-28T11:45:22.335Z,92.55
2017-11-28T11:47:50.663Z,92.74
2017-11-28T11:50:19.121Z,92.40
2017-11-28T11:52:47.484Z,92.39
2017-11-28T11:55:16.618Z,91.62
2017-11-28T11:57:45.600Z,91.60
2017-11-28T12:00:13.964Z,91.61
2017-11-28T12:02:43.050Z,91.21
2017-11-28T12:05:11.374Z,91.04
2017-11-28T12:07:39.681Z,90.48
2017-11-28T12:10:08.023Z,90.77
2017-11-28T12:12:36.345Z,90.73
2017-11-28T12:15:04.678Z,90.33
2017-11-28T12:17:33.013Z,89.82
2017-11-28T12:20:01.359Z,88.96
2017-11-28T12:22:31.023Z,89.14
2017-11-28T12:24:59.346Z,88.64
2017-11-28T12:27:27.753Z,88.17
2017-11-28T12:29:56.111Z,88.17
2017-11-28T12:32:24.576Z,88.16
2017-11-28T12:34:52.913Z,87.47
2017-11-28T12:37:21.256Z,87.16
2017-11-28T12:39:49.597Z,86.82
2017-11-28T12:42:17.962Z,85.50
2017-11-28T12:44:46.313Z,85.09
2017-11-28T12:47:14.630Z,84.98
2017-11-28T12:49:44.461Z,84.58
2017-11-28T12:52:14.308Z,84.78
2017-11-28T12:54:42.728Z,84.55
2017-11-28T12:57:11.027Z,83.46
2017-11-28T12:59:40.100Z,83.94
2017-11-28T13:02:08.423Z,84.93
2017-11-28T13:04:37.508Z,84.39
2017-11-28T13:07:05.843Z,83.96
2017-11-28T13:09:34.160Z,83.81
2017-11-28T13:12:02.488Z,83.59
2017-11-28T13:14:30.805Z,83.31
2017-11-28T13:16:59.105Z,82.77
2017-11-28T13:19:27.697Z,82.27
2017-11-28T13:21:56.014Z,82.43
2017-11-28T13:24:25.112Z,82.16
2017-11-28T13:26:54.208Z,80.43
2017-11-28T13:29:23.305Z,78.74
2017-11-28T13:31:52.479Z,78.26
2017-11-28T13:34:20.819Z,77.19
2017-11-28T13:36:49.237Z,77.34
2017-11-28T13:39:17.538Z,79.16
2017-11-28T13:41:46.640Z,80.60
2017-11-28T13:44:15.723Z,81.60
2017-11-28T13:46:44.226Z,84.05
2017-11-28T13:49:13.321Z,85.27
2017-11-28T13:51:42.428Z,86.03
2017-11-28T13:54:11.600Z,86.63
2017-11-28T13:56:40.439Z,87.00
2017-11-28T13:59:08.753Z,87.29
2017-11-28T14:01:37.072Z,87.41
2017-11-28T14:04:05.379Z,87.56
2017-11-28T14:06:33.696Z,87.89
2017-11-28T14:09:02.003Z,88.38
2017-11-28T14:11:31.106Z,88.37
2017-11-28T14:14:00.274Z,88.25
2017-11-28T14:16:28.604Z,88.75
2017-11-28T14:18:57.673Z,88.89
2017-11-28T14:21:27.862Z,89.11
2017-11-28T14:24:02.641Z,89.15
2017-11-28T14:26:38.355Z,89.03
2017-11-28T14:32:09.983Z,89.28
2017-11-28T14:34:44.260Z,89.42
2017-11-28T14:37:12.570Z,89.65
2017-11-28T14:39:40.908Z,89.64
2017-11-28T14:42:19.240Z,89.53
2017-11-28T14:47:50.949Z,89.47
2017-11-28T14:50:19.287Z,89.65
2017-11-28T14:52:49.205Z,89.38
2017-11-28T14:55:23.917Z,89.05
2017-11-28T14:58:04.949Z,89.08
2017-11-28T15:00:39.469Z,88.94
2017-11-28T15:03:13.165Z,89.34
2017-11-28T15:05:46.814Z,89.45
2017-11-28T15:08:20.667Z,89.55
2017-11-28T15:10:50.843Z,89.50
2017-11-28T15:16:25.299Z,89.16
2017-11-28T15:18:53.662Z,89.47
2017-11-28T15:21:27.756Z,89.37
2017-11-28T15:23:58.424Z,89.36
2017-11-28T15:26:29.056Z,89.41
2017-11-28T15:29:13.047Z,89.54
2017-11-28T15:31:41.374Z,89.48
2017-11-28T15:34:10.779Z,89.19
2017-11-28T15:36:40.098Z,88.93
2017-11-28T15:39:08.447Z,88.76
2017-11-28T15:41:36.777Z,89.04
2017-11-28T15:44:05.091Z,88.66
2017-11-28T15:46:33.448Z,88.39
2017-11-28T15:49:01.754Z,88.29
2017-11-28T15:51:30.858Z,88.03
2017-11-28T15:53:59.163Z,87.55
2017-11-28T15:56:27.535Z,88.16
2017-11-28T15:58:56.706Z,88.65
2017-11-28T16:01:25.040Z,89.14
2017-11-28T16:03:53.341Z,89.21
2017-11-28T16:06:21.642Z,89.36
2017-11-28T16:08:50.005Z,89.21
2017-11-28T16:11:18.319Z,89.19
2017-11-28T16:13:48.149Z,89.30
2017-11-28T16:16:17.499Z,89.56
2017-11-28T16:18:45.829Z,89.73
2017-11-28T16:21:14.174Z,89.95
2017-11-28T16:23:42.476Z,90.00
2017-11-28T16:26:10.790Z,89.92
2017-11-28T16:28:39.908Z,90.08
2017-11-28T16:31:08.217Z,89.94
2017-11-28T16:33:36.986Z,90.08
2017-11-28T16:36:05.300Z,90.10
2017-11-28T16:38:33.650Z,90.01
2017-11-28T16:41:01.943Z,90.02
2017-11-28T16:43:30.255Z,89.82
2017-11-28T16:46:00.079Z,89.67
2017-11-28T16:48:29.205Z,89.80
2017-11-28T16:50:57.538Z,89.93
2017-11-28T16:53:25.890Z,89.99
2017-11-28T16:55:54.201Z,89.89
2017-11-28T16:58:23.330Z,89.97
2017-11-28T17:00:52.771Z,89.79
2017-11-28T17:03:21.083Z,89.91
2017-11-28T17:05:49.434Z,90.24
2017-11-28T17:08:17.766Z,90.66
2017-11-28T17:10:46.107Z,91.02
2017-11-28T17:13:14.441Z,91.11
2017-11-28T17:15:42.750Z,91.29
2017-11-28T17:18:11.065Z,91.17
2017-11-28T17:20:39.399Z,91.33
2017-11-28T17:23:07.716Z,91.45
2017-11-28T17:25:36.012Z,91.64
2017-11-28T17:28:04.332Z,91.70
2017-11-28T17:30:33.422Z,91.73
2017-11-28T17:33:01.786Z,91.96
2017-11-28T17:35:30.091Z,92.22
2017-11-28T17:37:59.182Z,92.32
2017-11-28T17:40:27.509Z,92.31
2017-11-28T17:42:55.890Z,92.04
2017-11-28T17:45:24.210Z,92.22
2017-11-28T17:47:52.515Z,92.76
2017-11-28T17:50:21.595Z,92.51
2017-11-28T17:52:49.994Z,92.50
2017-11-28T17:55:19.062Z,92.64
2017-11-28T17:57:47.394Z,92.61
2017-11-28T18:00:15.737Z,92.77
2017-11-28T18:02:44.892Z,92.92
2017-11-28T18:05:13.250Z,92.82
2017-11-28T18:07:42.371Z,92.94
2017-11-28T18:10:10.689Z,92.94
2017-11-28T18:12:39.022Z,92.81
2017-11-28T18:15:07.352Z,92.82
2017-11-28T18:17:36.399Z,92.41
2017-11-28T18:20:04.796Z,92.89
2017-11-28T18:22:34.560Z,93.45
2017-11-28T18:25:03.651Z,93.37
2017-11-28T18:27:32.009Z,93.37
2017-11-28T18:30:00.345Z,93.42
2017-11-28T18:32:29.464Z,93.13
2017-11-28T18:34:57.856Z,93.01
2017-11-28T18:37:26.190Z,92.89
2017-11-28T18:39:54.495Z,92.92
2017-11-28T18:42:22.802Z,92.94
2017-11-28T18:44:51.109Z,92.59
2017-11-28T18:47:19.432Z,92.65
2017-11-28T18:49:47.764Z,92.66
2017-11-28T18:52:16.096Z,92.95
2017-11-28T18:54:45.205Z,92.60
2017-11-28T18:57:13.553Z,92.61
2017-11-28T18:59:42.625Z,92.69
2017-11-28T19:02:10.946Z,92.70
2017-11-28T19:04:39.310Z,92.63
2017-11-28T19:07:08.406Z,92.68
2017-11-28T19:09:36.764Z,92.65
2017-11-28T19:12:05.124Z,92.56
2017-11-28T19:14:33.528Z,92.32
2017-11-28T19:17:01.853Z,92.49
2017-11-28T19:19:30.982Z,92.53
2017-11-28T19:21:59.279Z,92.77
2017-11-28T19:24:27.587Z,92.80
2017-11-28T19:26:57.385Z,92.70
2017-11-28T19:29:25.703Z,92.92
2017-11-28T19:31:54.758Z,93.11
2017-11-28T19:34:23.068Z,93.26
2017-11-28T19:36:52.229Z,93.31
2017-11-28T19:39:20.544Z,93.58
2017-11-28T19:41:49.645Z,93.42
2017-11-28T19:44:17.964Z,93.33
2017-11-28T19:46:46.268Z,93.32
2017-11-28T19:49:14.593Z,93.15
2017-11-28T19:51:43.840Z,93.23
2017-11-28T19:54:12.277Z,93.04
2017-11-28T19:56:41.354Z,93.04
2017-11-28T19:59:09.687Z,92.88
2017-11-28T20:01:38.083Z,92.59
2017-11-28T20:04:07.453Z,92.72
2017-11-28T20:06:35.842Z,92.70
2017-11-28T20:09:04.369Z,92.78
2017-11-28T20:11:32.693Z,92.73
2017-11-28T20:14:01.209Z,92.80
2017-11-28T20:16:30.420Z,92.66
2017-11-28T20:18:58.738Z,92.68
2017-11-28T20:21:27.082Z,92.67
2017-11-28T20:23:55.369Z,92.39
2017-11-28T20:26:23.698Z,92.68
2017-11-28T20:28:52.796Z,92.51
2017-11-28T20:31:21.874Z,92.38
2017-11-28T20:33:50.166Z,92.11
2017-11-28T20:36:18.465Z,92.17
2017-11-28T20:38:47.607Z,92.14
2017-11-28T20:41:15.919Z,92.44
2017-11-28T20:43:44.261Z,92.28
2017-11-28T20:46:12.564Z,92.13
2017-11-28T20:48:40.920Z,92.24
2017-11-28T20:51:09.293Z,92.44
2017-11-28T20:53:38.327Z,92.24
2017-11-28T20:56:06.621Z,92.39
2017-11-28T20:58:34.942Z,92.63
2017-11-28T21:01:03.397Z,92.78
2017-11-28T21:03:32.500Z,92.42
2017-11-28T21:06:00.790Z,92.57
2017-11-28T21:08:29.880Z,92.69
2017-11-28T21:10:58.962Z,92.76
2017-11-28T21:13:27.271Z,92.63
2017-11-28T21:15:56.347Z,92.63
2017-11-28T21:18:25.408Z,92.44
2017-11-28T21:20:53.724Z,92.29
2017-11-28T21:23:22.045Z,92.47
2017-11-28T21:25:50.350Z,92.69
2017-11-28T21:28:18.664Z,92.86
2017-11-28T21:30:46.963Z,93.09
2017-11-28T21:33:16.049Z,92.78
2017-11-28T21:35:45.869Z,92.65
2017-11-28T21:38:14.189Z,92.94
2017-11-28T21:40:42.517Z,92.91
2017-11-28T21:43:10.821Z,92.76
2017-11-28T21:45:39.997Z,92.90
2017-11-28T21:48:08.565Z,92.61
2017-11-28T21:50:36.862Z,92.62
2017-11-28T21:53:05.174Z,92.64
2017-11-28T21:55:34.246Z,92.76
2017-11-28T21:58:02.577Z,92.72
2017-11-28T22:00:30.979Z,92.71
2017-11-28T22:02:59.324Z,92.61
2017-11-28T22:05:28.378Z,92.37
2017-11-28T22:07:56.727Z,92.18
2017-11-28T22:10:25.045Z,92.33
2017-11-28T22:12:53.837Z,92.43
2017-11-28T22:15:22.177Z,92.25
2017-11-28T22:17:50.501Z,92.23
2017-11-28T22:20:19.738Z,92.25
2017-11-28T22:22:48.820Z,92.29
2017-11-28T22:25:18.070Z,92.15
2017-11-28T22:27:46.384Z,92.12
2017-11-28T22:30:16.139Z,92.13
2017-11-28T22:32:44.613Z,92.08
2017-11-28T22:35:13.782Z,92.16
2017-11-28T22:37:43.813Z,92.17
2017-11-28T22:40:12.737Z,91.95
2017-11-28T22:42:41.095Z,91.70
2017-11-28T22:45:09.401Z,91.72
2017-11-28T22:47:37.732Z,91.86
2017-11-28T22:50:06.077Z,91.97
2017-11-28T22:52:34.386Z,92.17
2017-11-28T22:55:02.731Z,92.33
2017-11-28T22:57:31.045Z,92.29
2017-11-28T22:59:59.371Z,92.49
2017-11-28T23:02:28.536Z,92.61
2017-11-28T23:04:57.701Z,92.71
2017-11-28T23:07:26.083Z,92.82
2017-11-28T23:09:54.488Z,92.71
2017-11-28T23:12:23.793Z,92.81
2017-11-28T23:14:52.151Z,92.65
2017-11-28T23:17:21.627Z,92.71
2017-11-28T23:19:51.523Z,92.94
2017-11-28T23:22:20.655Z,92.60
2017-11-28T23:24:48.985Z,92.62
2017-11-28T23:27:17.293Z,92.48
2017-11-28T23:29:46.389Z,92.39
2017-11-28T23:32:15.475Z,92.55
2017-11-28T23:34:45.309Z,92.52
2017-11-28T23:37:13.626Z,92.52
2017-11-28T23:39:41.933Z,92.54
2017-11-28T23:42:10.265Z,92.55
2017-11-28T23:44:42.788Z,92.59
2017-11-28T23:47:15.322Z,92.67
2017-11-28T23:49:48.458Z,92.50
2017-11-28T23:52:27.237Z,92.48
2017-11-28T23:54:55.897Z,92.35
2017-11-28T23:57:25.056Z,92.25
2017-11-28T23:59:53.378Z,92.24
